Time;durP1;ratioP1;P1;durP2;ratioP2;P2;SDS_P1;SDS_P2;PMS_P1;PMS_P2;Temp;Humidity;BMP_temperature;BMP_pressure;BME280_temperature;BME280_humidity;BME280_pressure;Samples;Min_cycle;Max_cycle;Signal;HPM_P1;HPM_P2
2022/09/13 00:01:40;;;;;;;3.47;3.00;;;;;;;15.23;80.08;94686.53;5091773;28;20186;-77
2022/09/13 00:04:06;;;;;;;3.20;2.67;;;;;;;15.26;80.28;94691.34;5091976;28;20173;-77
2022/09/13 00:06:31;;;;;;;3.80;3.08;;;;;;;15.14;80.47;94664.13;5091753;28;20209;-77
2022/09/13 00:08:57;;;;;;;3.40;3.03;;;;;;;15.23;80.50;94672.47;5091851;28;20201;-77
2022/09/13 00:11:25;;;;;;;5.33;3.03;;;;;;;15.26;80.68;94672.78;5091878;28;20212;-77
2022/09/13 00:13:51;;;;;;;6.22;3.22;;;;;;;15.36;80.09;94680.09;5091773;28;20680;-77
2022/09/13 00:16:19;;;;;;;7.18;3.65;;;;;;;15.37;80.27;94671.88;5091945;28;20174;-77
2022/09/13 00:18:45;;;;;;;4.32;3.00;;;;;;;15.49;80.01;94666.47;5091615;28;20182;-77
2022/09/13 00:21:13;;;;;;;4.72;3.13;;;;;;;15.52;79.81;94659.88;5091616;28;20189;-77
2022/09/13 00:23:42;;;;;;;3.83;3.10;;;;;;;15.44;80.25;94656.59;5091609;28;20181;-78
2022/09/13 00:26:10;;;;;;;8.25;3.83;;;;;;;15.43;80.03;94662.13;5084496;28;20177;-78
2022/09/13 00:28:36;;;;;;;8.30;3.50;;;;;;;15.45;80.26;94652.09;5091968;28;20248;-78
2022/09/13 00:31:04;;;;;;;7.43;2.97;;;;;;;15.45;80.34;94652.91;5073169;28;20178;-78
2022/09/13 00:33:30;;;;;;;4.13;3.13;;;;;;;15.56;79.98;94653.06;5091566;28;20186;-78
2022/09/13 00:35:57;;;;;;;4.70;3.30;;;;;;;15.44;80.33;94647.84;5091283;28;20259;-77
2022/09/13 00:38:23;;;;;;;4.18;3.42;;;;;;;15.46;80.63;94651.84;5091478;28;20220;-78
2022/09/13 00:40:48;;;;;;;7.43;3.65;;;;;;;15.41;80.67;94646.47;5091284;28;20177;-77
2022/09/13 00:43:39;;;;;;;4.43;3.13;;;;;;;15.24;80.57;94610.44;5091360;28;20224;-78
2022/09/13 00:46:05;;;;;;;3.55;3.05;;;;;;;15.48;80.96;94628.50;5091578;28;20185;-78
2022/09/13 00:48:33;;;;;;;3.55;2.90;;;;;;;15.70;80.82;94646.31;5091632;28;20649;-78
2022/09/13 00:50:59;;;;;;;5.68;3.65;;;;;;;15.76;79.74;94648.78;5091303;28;20181;-78
2022/09/13 00:53:35;;;;;;;4.65;3.00;;;;;;;15.87;79.98;94641.75;5073265;28;20592;-78
2022/09/13 00:56:20;;;;;;;6.38;2.85;;;;;;;15.95;79.38;94643.97;5091424;28;20215;-78
2022/09/13 00:58:52;;;;;;;3.88;3.08;;;;;;;16.05;79.06;94640.63;5090572;28;20188;-78
2022/09/13 01:01:22;;;;;;;4.88;3.10;;;;;;;16.06;78.75;94645.69;5090984;28;20173;-78
2022/09/13 01:03:48;;;;;;;4.05;3.50;;;;;;;15.98;77.97;94624.09;5084954;28;20271;-78
2022/09/13 01:06:28;;;;;;;5.75;3.03;;;;;;;16.04;77.75;94637.16;5091009;28;20181;-78
2022/09/13 01:08:57;;;;;;;3.78;3.17;;;;;;;16.03;78.03;94629.44;5084783;28;20293;-78
2022/09/13 01:11:30;;;;;;;5.20;3.05;;;;;;;16.18;78.10;94642.84;5090899;28;20177;-78
2022/09/13 01:13:57;;;;;;;8.27;3.83;;;;;;;16.10;77.70;94640.66;5091138;28;20177;-78
2022/09/13 01:16:23;;;;;;;4.57;3.20;;;;;;;16.11;77.55;94645.72;5091012;28;20660;-78
2022/09/13 01:18:48;;;;;;;3.53;2.83;;;;;;;16.08;77.72;94638.28;5090933;28;20176;-78
2022/09/13 01:21:35;;;;;;;5.65;3.30;;;;;;;16.13;77.94;94638.31;5091344;28;20177;-77
2022/09/13 01:24:37;;;;;;;3.28;2.97;;;;;;;16.14;77.33;94631.16;5090504;28;20185;-75
2022/09/13 01:27:21;;;;;;;4.65;3.30;;;;;;;16.13;77.24;94633.00;5090559;28;20177;-77
2022/09/13 01:30:00;;;;;;;3.42;2.90;;;;;;;16.16;77.58;94634.38;5090962;28;20201;-77
2022/09/13 01:32:43;;;;;;;4.72;3.42;;;;;;;16.12;77.29;94623.44;5090909;28;20191;-78
2022/09/13 01:35:33;;;;;;;3.60;2.90;;;;;;;16.16;77.31;94631.72;5090736;28;20173;-78
2022/09/13 01:38:20;;;;;;;3.58;2.88;;;;;;;16.17;77.55;94636.75;5090465;28;20181;-77
2022/09/13 01:40:56;;;;;;;4.22;2.83;;;;;;;16.19;77.56;94625.88;5090885;28;20181;-75
2022/09/13 01:43:45;;;;;;;3.40;3.10;;;;;;;16.20;77.32;94620.31;5083815;28;21000;-78
2022/09/13 01:46:28;;;;;;;3.30;3.00;;;;;;;16.17;77.38;94620.03;5090751;28;20189;-77
2022/09/13 01:49:14;;;;;;;7.00;3.35;;;;;;;16.21;77.33;94624.56;5094107;28;20773;-77
2022/09/13 01:52:00;;;;;;;3.40;3.00;;;;;;;16.17;77.98;94626.13;5094897;28;20359;-77
2022/09/13 01:54:40;;;;;;;9.90;3.53;;;;;;;16.03;77.78;94621.47;5093258;28;20193;-77
2022/09/13 01:57:15;;;;;;;5.90;3.40;;;;;;;15.84;78.65;94627.13;5094694;28;20250;-78
2022/09/13 01:59:46;;;;;;;4.38;3.08;;;;;;;15.85;78.84;94626.06;5094466;28;20219;-78
2022/09/13 02:02:36;;;;;;;4.80;3.13;;;;;;;15.84;79.47;94626.31;5094545;28;20223;-77
2022/09/13 02:05:08;;;;;;;7.97;2.65;;;;;;;15.82;79.58;94618.63;5080164;28;20258;-77
2022/09/13 02:07:41;;;;;;;5.47;3.22;;;;;;;15.70;79.33;94583.44;5094165;28;20181;-77
2022/09/13 02:10:12;;;;;;;3.78;2.95;;;;;;;15.91;79.40;94616.31;5093899;28;20282;-78
2022/09/13 02:12:41;;;;;;;3.22;2.90;;;;;;;15.92;79.29;94615.25;5093906;28;20182;-77
2022/09/13 02:15:21;;;;;;;5.40;3.50;;;;;;;15.97;78.49;94614.50;5093906;28;20660;-78
2022/09/13 02:17:53;;;;;;;5.05;3.38;;;;;;;16.00;78.17;94622.00;5094138;28;20180;-77
2022/09/13 02:20:32;;;;;;;4.97;2.95;;;;;;;15.80;78.28;94603.97;5093913;28;20250;-77
2022/09/13 02:23:03;;;;;;;9.15;3.65;;;;;;;15.82;78.74;94623.94;5094031;28;20177;-78
2022/09/13 02:25:33;;;;;;;5.70;3.58;;;;;;;15.67;78.93;94617.63;5094091;28;20213;-77
2022/09/13 02:28:06;;;;;;;9.02;3.67;;;;;;;15.48;79.64;94615.25;5094052;28;20692;-77
2022/09/13 02:30:33;;;;;;;4.95;3.72;;;;;;;15.44;80.01;94618.66;5094044;28;20178;-77
2022/09/13 02:33:21;;;;;;;5.43;3.22;;;;;;;15.24;80.42;94618.38;5093875;28;20181;-77
2022/09/13 02:35:52;;;;;;;4.22;3.15;;;;;;;15.20;81.10;94614.63;5093732;28;20178;-77
2022/09/13 02:38:28;;;;;;;4.00;3.10;;;;;;;15.16;81.23;94624.91;5093695;28;20170;-77
2022/09/13 02:41:19;;;;;;;4.25;3.33;;;;;;;15.17;81.37;94625.72;5093627;28;20208;-77
2022/09/13 02:43:52;;;;;;;5.93;3.47;;;;;;;15.21;81.08;94626.84;5093367;28;20213;-77
2022/09/13 02:46:40;;;;;;;3.67;3.15;;;;;;;15.19;80.84;94624.44;5093569;28;20611;-77
2022/09/13 02:49:30;;;;;;;3.60;2.97;;;;;;;15.03;81.11;94623.44;5093122;28;20201;-77
2022/09/13 02:52:21;;;;;;;3.90;3.10;;;;;;;14.75;82.23;94626.19;5085087;28;20585;-77
2022/09/13 02:55:17;;;;;;;4.83;3.67;;;;;;;14.65;82.85;94621.53;5093685;28;21021;-77
2022/09/13 02:58:05;;;;;;;4.33;3.47;;;;;;;14.64;82.68;94622.56;5075391;28;20170;-77
2022/09/13 03:00:31;;;;;;;6.57;3.45;;;;;;;14.54;83.12;94617.09;5083812;28;20217;-77
2022/09/13 03:03:01;;;;;;;5.87;3.57;;;;;;;14.39;83.92;94616.88;5093399;28;20201;-78
2022/09/13 03:05:27;;;;;;;5.20;3.70;;;;;;;14.34;84.08;94614.13;5093390;28;20689;-77
2022/09/13 03:07:53;;;;;;;4.00;3.50;;;;;;;14.38;83.97;94623.16;5092968;28;20264;-77
2022/09/13 03:10:22;;;;;;;5.07;3.83;;;;;;;14.47;83.40;94616.47;5093208;28;20209;-78
2022/09/13 03:13:05;;;;;;;5.07;3.70;;;;;;;14.54;83.39;94613.66;5093266;28;20208;-77
2022/09/13 03:16:11;;;;;;;4.13;2.87;;;;;;;14.53;83.25;94618.13;5093124;28;20217;-78
2022/09/13 03:18:55;;;;;;;4.45;3.17;;;;;;;14.58;83.11;94615.59;5092768;28;20628;-77
2022/09/13 03:22:04;;;;;;;7.00;3.30;;;;;;;14.62;83.04;94618.53;5092785;28;20182;-77
2022/09/13 03:24:48;;;;;;;7.67;3.37;;;;;;;14.69;82.86;94620.00;5091260;28;20169;-77
2022/09/13 03:27:47;;;;;;;4.47;3.37;;;;;;;14.72;82.49;94616.84;5091670;28;20552;-78
2022/09/13 03:30:14;;;;;;;9.13;3.03;;;;;;;14.70;82.44;94613.63;5092744;28;20627;-78
2022/09/13 03:33:05;;;;;;;4.27;3.10;;;;;;;14.73;82.22;94621.13;5092905;28;20185;-78
2022/09/13 03:35:42;;;;;;;5.40;3.00;;;;;;;14.69;82.12;94613.91;5092744;28;20201;-78
2022/09/13 03:38:46;;;;;;;5.33;2.90;;;;;;;14.72;81.84;94619.50;5092911;28;20178;-78
2022/09/13 03:41:18;;;;;;;4.57;3.20;;;;;;;14.69;81.67;94612.06;4995910;28;20614;-78
2022/09/13 03:43:50;;;;;;;6.00;3.07;;;;;;;14.77;81.75;94624.09;5058475;28;20296;-77
2022/09/13 03:46:31;;;;;;;7.78;3.50;;;;;;;14.76;82.07;94625.13;5072953;28;20201;-78
2022/09/13 03:49:03;;;;;;;10.03;3.57;;;;;;;14.69;81.72;94606.75;5072644;28;20244;-78
2022/09/13 03:51:30;;;;;;;5.00;2.83;;;;;;;14.77;81.66;94620.66;5072021;28;20209;-77
2022/09/13 03:54:01;;;;;;;6.13;2.70;;;;;;;14.61;81.89;94625.72;5072157;28;20972;-77
2022/09/13 03:56:26;;;;;;;11.13;3.43;;;;;;;14.40;81.68;94601.78;5060737;28;20179;-77
2022/09/13 03:58:52;;;;;;;7.00;3.63;;;;;;;14.53;81.97;94620.00;5065379;28;20199;-77
2022/09/13 04:01:19;;;;;;;5.07;3.20;;;;;;;14.53;81.83;94620.78;5063709;28;20198;-77
2022/09/13 04:03:45;;;;;;;4.00;3.10;;;;;;;14.60;81.89;94633.91;5069422;28;20181;-77
2022/09/13 04:06:10;;;;;;;5.20;3.20;;;;;;;14.61;81.86;94630.22;5056648;28;20186;-77
2022/09/13 04:08:36;;;;;;;5.07;3.37;;;;;;;14.64;82.05;94629.72;5071757;28;20252;-77
2022/09/13 04:11:01;;;;;;;6.18;3.53;;;;;;;14.64;81.77;94630.50;5071143;28;20183;-77
2022/09/13 04:13:28;;;;;;;6.00;3.20;;;;;;;14.60;81.69;94624.09;5071345;28;20178;-77
2022/09/13 04:15:53;;;;;;;4.20;3.27;;;;;;;14.60;81.66;94631.25;5071769;28;20190;-77
2022/09/13 04:18:19;;;;;;;5.60;3.10;;;;;;;14.57;81.86;94632.53;5071685;28;20698;-77
2022/09/13 04:20:52;;;;;;;4.33;3.30;;;;;;;14.56;81.70;94622.97;5071362;28;20654;-77
2022/09/13 04:23:18;;;;;;;5.80;3.73;;;;;;;14.57;81.57;94631.72;5071864;28;21078;-77
2022/09/13 04:25:44;;;;;;;5.67;3.87;;;;;;;14.50;81.28;94629.25;5071239;28;20202;-77
2022/09/13 04:28:10;;;;;;;8.57;3.60;;;;;;;14.49;81.56;94634.78;5071474;28;20185;-77
2022/09/13 04:30:35;;;;;;;4.13;3.38;;;;;;;14.49;81.60;94634.78;5071629;28;20179;-77
2022/09/13 04:33:01;;;;;;;5.33;3.70;;;;;;;14.48;81.46;94641.91;5071018;28;20182;-77
2022/09/13 04:35:27;;;;;;;9.07;3.63;;;;;;;14.53;81.64;94636.69;5071361;28;20190;-77
2022/09/13 04:37:57;;;;;;;5.80;2.83;;;;;;;14.56;81.16;94649.47;5071218;28;20174;-77
2022/09/13 04:40:23;;;;;;;14.30;8.47;;;;;;;14.59;81.54;94641.03;5071193;28;20170;-77
2022/09/13 04:42:48;;;;;;;6.77;3.60;;;;;;;14.63;80.76;94650.09;5081338;28;20220;-77
2022/09/13 04:45:14;;;;;;;6.73;3.60;;;;;;;14.66;80.48;94654.13;5052648;28;20567;-76
2022/09/13 04:47:39;;;;;;;13.67;6.37;;;;;;;14.68;80.59;94652.84;5070934;28;20181;-77
2022/09/13 04:50:06;;;;;;;13.90;5.50;;;;;;;14.60;80.86;94637.34;5081281;28;20212;-78
2022/09/13 04:52:32;;;;;;;8.23;4.50;;;;;;;14.64;80.77;94642.97;5087983;28;20193;-78
2022/09/13 04:55:00;;;;;;;11.73;5.03;;;;;;;14.70;80.93;94640.13;5067350;28;20204;-78
2022/09/13 04:57:28;;;;;;;11.03;4.53;;;;;;;14.87;80.38;94650.75;5081709;28;20177;-78
2022/09/13 04:59:54;;;;;;;6.15;3.63;;;;;;;15.02;80.14;94655.47;5080192;28;20320;-78
2022/09/13 05:02:19;;;;;;;8.15;4.28;;;;;;;15.14;79.42;94673.91;5071116;28;20711;-78
2022/09/13 05:04:45;;;;;;;3.80;2.83;;;;;;;15.32;79.34;94674.47;5087027;28;20181;-78
2022/09/13 05:07:10;;;;;;;7.07;2.75;;;;;;;15.58;78.39;94665.00;5082199;28;20181;-78
2022/09/13 05:09:35;;;;;;;5.90;2.75;;;;;;;16.03;77.11;94666.59;5079022;28;20662;-78
2022/09/13 05:12:01;;;;;;;7.90;2.55;;;;;;;16.57;75.64;94664.75;5074721;28;20201;-78
2022/09/13 05:14:26;;;;;;;8.73;2.78;;;;;;;17.10;73.78;94663.88;5083714;28;20201;-76
2022/09/13 05:16:52;;;;;;;7.43;2.60;;;;;;;17.66;72.16;94665.03;5079579;28;20174;-78
2022/09/13 05:19:17;;;;;;;5.22;2.20;;;;;;;18.13;70.88;94653.50;5090575;28;20178;-78
2022/09/13 05:21:43;;;;;;;7.82;2.58;;;;;;;18.76;68.81;94659.50;5090878;28;20558;-76
2022/09/13 05:24:08;;;;;;;2.20;2.00;;;;;;;19.22;66.35;94666.41;5095183;28;20173;-76
2022/09/13 05:26:34;;;;;;;3.83;2.20;;;;;;;19.62;64.73;94669.31;5095314;28;20189;-76
2022/09/13 05:29:00;;;;;;;4.20;2.58;;;;;;;20.03;64.71;94673.41;5077097;28;20250;-76
2022/09/13 05:31:34;;;;;;;4.30;2.03;;;;;;;20.32;61.36;94677.00;5095276;28;20572;-78
2022/09/13 05:34:06;;;;;;;5.30;2.30;;;;;;;20.48;59.92;94675.09;5077663;28;20180;-76
2022/09/13 05:36:32;;;;;;;4.13;2.30;;;;;;;20.67;60.65;94669.88;5074957;28;20680;-75
2022/09/13 05:38:59;;;;;;;10.55;2.53;;;;;;;20.91;60.40;94676.13;5088907;28;20201;-78
2022/09/13 05:41:25;;;;;;;3.58;2.15;;;;;;;21.06;59.56;94672.53;5078417;28;20189;-76
2022/09/13 05:43:50;;;;;;;10.45;2.10;;;;;;;21.16;58.44;94667.09;5076117;28;20221;-76
2022/09/13 05:46:18;;;;;;;4.88;1.95;;;;;;;21.01;57.91;94676.06;5095213;28;20958;-76
2022/09/13 05:48:44;;;;;;;3.50;2.28;;;;;;;20.74;59.29;94675.72;5094900;28;20197;-78
2022/09/13 05:51:15;;;;;;;12.73;7.68;;;;;;;20.34;60.25;94660.72;5095424;28;20185;-76
2022/09/13 05:53:43;;;;;;;7.03;4.32;;;;;;;20.09;60.17;94660.81;5095069;28;20202;-76
2022/09/13 05:56:12;;;;;;;6.28;3.33;;;;;;;20.11;61.36;94675.53;5095088;28;20177;-79
2022/09/13 05:58:38;;;;;;;3.88;2.72;;;;;;;20.17;62.33;94670.94;5095311;28;20182;-76
2022/09/13 06:01:04;;;;;;;3.00;2.50;;;;;;;20.16;60.68;94675.50;5094905;28;20258;-77
2022/09/13 06:03:29;;;;;;;5.63;2.50;;;;;;;20.46;61.21;94668.41;5095219;28;20207;-77
2022/09/13 06:05:56;;;;;;;2.20;1.90;;;;;;;20.87;59.65;94668.94;5095093;28;20176;-76
2022/09/13 06:08:27;;;;;;;4.05;2.17;;;;;;;21.31;58.33;94680.38;5094509;28;20192;-76
2022/09/13 06:11:01;;;;;;;5.95;2.42;;;;;;;21.74;57.40;94683.97;5094470;28;20181;-76
2022/09/13 06:13:27;;;;;;;4.95;1.90;;;;;;;22.13;56.14;94686.50;5094684;28;20181;-76
2022/09/13 06:15:57;;;;;;;3.08;1.95;;;;;;;22.44;55.48;94683.41;5094435;28;20174;-76
2022/09/13 06:18:26;;;;;;;4.05;2.25;;;;;;;22.71;53.96;94686.25;5094406;28;20264;-76
2022/09/13 06:21:04;;;;;;;2.25;2.00;;;;;;;23.08;53.43;94685.47;5094054;28;20174;-76
2022/09/13 06:23:30;;;;;;;3.60;1.85;;;;;;;23.26;52.90;94679.22;5094463;28;20181;-76
2022/09/13 06:26:00;;;;;;;2.50;1.88;;;;;;;23.47;51.69;94681.56;5094631;28;20207;-79
2022/09/13 06:28:26;;;;;;;6.47;2.10;;;;;;;23.74;52.14;94683.53;5095423;28;20178;-79
2022/09/13 06:30:51;;;;;;;3.60;1.80;;;;;;;24.12;51.24;94687.66;5095791;28;20177;-78
2022/09/13 06:33:17;;;;;;;2.53;1.85;;;;;;;24.55;50.88;94679.25;5095443;28;20675;-79
2022/09/13 06:35:42;;;;;;;2.15;1.80;;;;;;;24.95;49.77;94686.44;5095254;28;20182;-79
2022/09/13 06:38:08;;;;;;;6.32;1.75;;;;;;;25.29;49.20;94690.50;5094969;28;20550;-78
2022/09/13 06:40:33;;;;;;;2.00;1.80;;;;;;;25.51;47.33;94701.28;5095213;28;20189;-79
2022/09/13 06:42:58;;;;;;;6.75;2.17;;;;;;;25.67;47.24;94664.75;5085579;28;20232;-79
2022/09/13 06:45:24;;;;;;;4.35;2.20;;;;;;;26.17;45.38;94691.44;5083132;28;20529;-78
2022/09/13 06:47:53;;;;;;;2.30;1.88;;;;;;;26.22;45.16;94681.28;5088596;28;20170;-79
2022/09/13 06:50:19;;;;;;;6.53;2.28;;;;;;;26.39;44.59;94699.47;5085671;28;20196;-78
2022/09/13 06:52:44;;;;;;;2.60;1.98;;;;;;;26.44;44.48;94706.63;5066429;28;20175;-79
2022/09/13 06:55:10;;;;;;;3.78;2.20;;;;;;;26.44;44.12;94707.44;5074400;28;20206;-79
2022/09/13 06:57:35;;;;;;;2.15;1.95;;;;;;;26.54;44.43;94711.75;5088961;28;20177;-79
2022/09/13 07:00:01;;;;;;;2.63;2.15;;;;;;;26.73;43.07;94709.53;5077851;28;20566;-79
2022/09/13 07:02:26;;;;;;;3.92;2.00;;;;;;;26.77;44.14;94710.50;5083279;28;20185;-79
2022/09/13 07:04:51;;;;;;;2.65;2.00;;;;;;;26.99;42.47;94712.28;5083312;28;20257;-79
2022/09/13 07:07:18;;;;;;;2.00;1.80;;;;;;;27.21;42.92;94719.47;5088392;28;20262;-79
2022/09/13 07:09:43;;;;;;;2.95;2.30;;;;;;;27.16;41.83;94728.50;5091273;28;20200;-79
2022/09/13 07:12:09;;;;;;;11.07;2.17;;;;;;;26.89;42.88;94721.50;5072663;28;20181;-79
2022/09/13 07:14:34;;;;;;;5.15;2.45;;;;;;;26.51;42.57;94709.66;5065955;28;20707;-79
2022/09/13 07:17:00;;;;;;;2.65;1.67;;;;;;;26.36;45.40;94721.72;5061217;28;20439;-76
2022/09/13 07:19:27;;;;;;;3.53;2.30;;;;;;;26.52;45.55;94728.25;5080731;28;20177;-76
2022/09/13 07:21:53;;;;;;;3.95;1.75;;;;;;;26.72;42.88;94726.09;5093023;28;20261;-76
2022/09/13 07:24:20;;;;;;;3.08;1.90;;;;;;;26.72;43.23;94721.47;5092655;28;20186;-75
2022/09/13 07:26:46;;;;;;;4.32;2.08;;;;;;;26.85;44.22;94725.13;5080888;28;20275;-75
2022/09/13 07:29:15;;;;;;;2.50;1.80;;;;;;;26.76;41.60;94730.53;5071927;28;20209;-75
2022/09/13 07:31:43;;;;;;;3.33;1.75;;;;;;;26.65;42.08;94724.63;5066233;28;20183;-75
2022/09/13 07:34:22;;;;;;;2.08;1.80;;;;;;;26.61;42.77;94728.28;5077330;28;20174;-76
2022/09/13 07:36:48;;;;;;;3.33;1.80;;;;;;;26.59;42.25;94717.78;5092268;28;20188;-76
2022/09/13 07:39:14;;;;;;;4.40;2.05;;;;;;;26.78;42.99;94724.81;5061222;28;20587;-76
2022/09/13 07:41:40;;;;;;;5.57;1.80;;;;;;;26.81;41.65;94726.91;5073283;28;20600;-76
2022/09/13 07:44:07;;;;;;;3.85;2.45;;;;;;;26.92;42.34;94729.00;5092538;28;20268;-76
2022/09/13 07:46:40;;;;;;;2.58;1.77;;;;;;;27.04;40.84;94734.56;5091836;28;20178;-77
2022/09/13 07:49:06;;;;;;;6.32;2.42;;;;;;;27.09;42.57;94733.59;5092174;28;20193;-76
2022/09/13 07:51:34;;;;;;;4.22;1.98;;;;;;;27.30;40.08;94737.28;5092189;28;20273;-76
2022/09/13 07:54:04;;;;;;;1.83;1.67;;;;;;;27.18;40.75;94739.81;5073794;28;21023;-78
2022/09/13 07:56:32;;;;;;;3.03;1.83;;;;;;;27.14;41.40;94741.56;5075681;28;20556;-77
2022/09/13 07:59:00;;;;;;;3.83;1.63;;;;;;;27.23;40.76;94734.25;5092821;28;20174;-78
2022/09/13 08:01:57;;;;;;;2.33;1.65;;;;;;;27.28;40.32;94725.97;5075525;28;20190;-78
2022/09/13 08:04:24;;;;;;;2.40;2.20;;;;;;;27.35;41.03;94736.31;5040280;28;20194;-78
2022/09/13 08:06:50;;;;;;;3.67;1.90;;;;;;;27.09;40.84;94739.00;5072988;28;20664;-77
2022/09/13 08:09:17;;;;;;;2.13;1.73;;;;;;;27.02;41.28;94733.28;5082527;28;20198;-76
2022/09/13 08:11:48;;;;;;;2.95;2.38;;;;;;;27.09;39.66;94711.97;5074875;28;20188;-77
2022/09/13 08:14:16;;;;;;;1.77;1.58;;;;;;;27.00;39.49;94732.81;5074235;28;20260;-76
2022/09/13 08:16:41;;;;;;;5.85;2.00;;;;;;;26.13;42.40;94734.44;5072276;28;20190;-77
2022/09/13 08:19:11;;;;;;;2.40;1.70;;;;;;;26.33;41.05;94716.13;5075676;28;20188;-78
2022/09/13 08:21:37;;;;;;;3.17;1.50;;;;;;;26.44;41.08;94730.94;5083980;28;20188;-78
2022/09/13 08:24:05;;;;;;;3.70;1.60;;;;;;;26.27;41.30;94712.78;5083185;28;20178;-77
2022/09/13 08:26:32;;;;;;;3.53;1.65;;;;;;;26.47;41.02;94717.59;5081220;28;20166;-77
2022/09/13 08:29:00;;;;;;;1.30;1.20;;;;;;;26.56;39.46;94704.91;5081574;28;20194;-78
2022/09/13 08:31:26;;;;;;;3.92;1.70;;;;;;;26.74;40.07;94723.84;5073796;28;20270;-77
2022/09/13 08:33:52;;;;;;;1.52;1.40;;;;;;;26.98;39.87;94713.44;5090267;28;20283;-77
2022/09/13 08:36:18;;;;;;;1.80;1.70;;;;;;;26.83;41.11;94713.84;5084129;28;20181;-76
2022/09/13 08:38:53;;;;;;;2.75;1.58;;;;;;;26.41;38.66;94715.34;5091356;28;20177;-76
2022/09/13 08:41:40;;;;;;;2.78;1.60;;;;;;;25.93;38.99;94714.22;5082730;28;20179;-78
2022/09/13 08:44:09;;;;;;;1.90;1.80;;;;;;;25.28;40.78;94713.16;5092386;28;20162;-78
2022/09/13 08:46:39;;;;;;;5.53;2.10;;;;;;;24.77;42.70;94711.59;5092334;28;20233;-76
2022/09/13 08:49:10;;;;;;;2.45;2.25;;;;;;;24.64;42.03;94715.94;5078636;28;20182;-81
2022/09/13 08:51:43;;;;;;;4.50;1.83;;;;;;;24.42;41.91;94719.34;5076545;28;20243;-76
2022/09/13 08:54:15;;;;;;;5.93;1.92;;;;;;;24.15;43.14;94708.56;5084115;28;20174;-77
2022/09/13 08:57:14;;;;;;;2.05;1.58;;;;;;;24.41;43.61;94704.28;5082705;28;20268;-78
2022/09/13 08:59:51;;;;;;;1.60;1.30;;;;;;;24.65;43.98;94701.34;5081904;28;20186;-76
2022/09/13 09:02:47;;;;;;;1.58;1.48;;;;;;;24.66;43.09;94699.47;5075958;28;20181;-77
2022/09/13 09:05:21;;;;;;;4.05;3.15;;;;;;;23.74;44.12;94670.91;5079056;28;20184;-76
2022/09/13 09:08:14;;;;;;;3.95;1.80;;;;;;;23.85;44.29;94714.53;5081593;28;20180;-78
2022/09/13 09:10:46;;;;;;;4.05;2.10;;;;;;;23.62;46.17;94703.63;5073371;28;20194;-75
2022/09/13 09:13:12;;;;;;;1.75;1.63;;;;;;;23.30;45.18;94709.81;5079042;28;20166;-76
2022/09/13 09:15:53;;;;;;;4.93;2.35;;;;;;;23.51;48.29;94709.50;5085347;28;20177;-78
2022/09/13 09:18:31;;;;;;;1.35;1.25;;;;;;;23.61;43.97;94709.34;5090879;28;20558;-75
2022/09/13 09:20:59;;;;;;;2.75;1.98;;;;;;;23.42;44.22;94695.13;5070383;28;20166;-75
2022/09/13 09:23:48;;;;;;;5.40;3.53;;;;;;;23.40;43.38;94708.03;5068023;28;20665;-75
2022/09/13 09:26:28;;;;;;;2.40;2.20;;;;;;;23.22;45.29;94707.00;5067864;28;20236;-74
2022/09/13 09:28:59;;;;;;;2.08;1.88;;;;;;;23.04;45.09;94703.25;5065767;28;20205;-75
2022/09/13 09:31:58;;;;;;;1.50;1.40;;;;;;;22.91;46.21;94702.09;5068413;28;20672;-78
2022/09/13 09:34:31;;;;;;;7.95;3.53;;;;;;;22.78;45.88;94702.81;5072942;28;20170;-78
2022/09/13 09:37:25;;;;;;;6.47;2.55;;;;;;;22.64;45.16;94703.81;5066117;28;20162;-76
2022/09/13 09:39:52;;;;;;;7.65;3.25;;;;;;;22.33;45.62;94668.53;5053733;28;20183;-76
2022/09/13 09:42:25;;;;;;;4.32;2.30;;;;;;;22.44;47.27;94691.47;5075830;28;20304;-76
2022/09/13 09:44:59;;;;;;;2.10;1.90;;;;;;;22.31;46.48;94676.09;5089782;28;20170;-76
2022/09/13 09:47:28;;;;;;;7.32;5.10;;;;;;;22.42;46.29;94688.28;5089835;28;20879;-75
2022/09/13 09:50:09;;;;;;;8.65;4.55;;;;;;;22.43;46.96;94692.56;5088938;28;20197;-76
2022/09/13 09:52:40;;;;;;;5.50;1.80;;;;;;;22.38;47.88;94681.91;5089686;28;20201;-75
2022/09/13 09:55:15;;;;;;;4.13;1.92;;;;;;;22.55;49.63;94672.25;5090410;28;20185;-75
2022/09/13 09:57:51;;;;;;;6.40;2.30;;;;;;;22.75;47.55;94673.06;5089127;28;20176;-75
2022/09/13 10:00:17;;;;;;;4.00;1.73;;;;;;;23.04;49.01;94676.38;5090397;28;20261;-75
2022/09/13 10:02:44;;;;;;;1.80;1.65;;;;;;;23.26;47.37;94665.81;5090651;28;20158;-75
2022/09/13 10:05:13;;;;;;;2.55;1.73;;;;;;;23.48;47.72;94661.69;5090644;28;20177;-77
2022/09/13 10:07:40;;;;;;;5.68;1.67;;;;;;;23.58;46.11;94653.47;5090863;28;20605;-77
2022/09/13 10:10:23;;;;;;;8.15;2.22;;;;;;;23.38;46.12;94643.84;5094010;28;20197;-77
2022/09/13 10:12:52;;;;;;;6.88;1.83;;;;;;;23.52;46.52;94652.78;5094217;28;20256;-76
2022/09/13 10:15:19;;;;;;;4.60;2.40;;;;;;;23.62;46.47;94649.88;5094562;28;20173;-76
2022/09/13 10:18:15;;;;;;;2.15;1.73;;;;;;;23.54;45.23;94657.81;5094044;28;20174;-76
2022/09/13 10:20:40;;;;;;;1.90;1.70;;;;;;;23.01;46.45;94652.78;5096180;28;20803;-75
2022/09/13 10:23:19;;;;;;;1.52;1.40;;;;;;;22.95;48.88;94656.66;5110367;28;20185;-76
2022/09/13 10:25:56;;;;;;;2.10;1.60;;;;;;;22.97;46.02;94651.81;5092666;28;20181;-76
2022/09/13 10:28:23;;;;;;;1.73;1.63;;;;;;;22.62;44.88;94646.94;5093260;28;20598;-76
2022/09/13 10:31:08;;;;;;;4.70;1.85;;;;;;;22.45;45.72;94656.31;5091792;28;20174;-76
2022/09/13 10:33:36;;;;;;;6.00;2.60;;;;;;;22.38;48.13;94655.06;5092522;28;20667;-76
2022/09/13 10:36:12;;;;;;;2.63;1.73;;;;;;;22.19;47.78;94645.13;5092688;28;20181;-76
2022/09/13 10:38:40;;;;;;;5.45;1.65;;;;;;;21.98;47.72;94641.09;5093365;28;20205;-76
2022/09/13 10:41:10;;;;;;;4.00;2.30;;;;;;;21.96;48.04;94640.56;5092761;28;20166;-75
2022/09/13 10:43:36;;;;;;;2.88;1.90;;;;;;;22.06;49.35;94639.66;5092500;28;20304;-75
2022/09/13 10:46:07;;;;;;;1.65;1.50;;;;;;;22.28;49.45;94647.97;5092610;28;20261;-75
2022/09/13 10:48:45;;;;;;;2.15;1.95;;;;;;;22.42;47.57;94631.94;5092569;28;20170;-76
2022/09/13 10:51:27;;;;;;;1.98;1.77;;;;;;;22.59;46.40;94624.97;5092602;28;20180;-76
2022/09/13 10:54:24;;;;;;;2.10;1.70;;;;;;;22.79;48.03;94621.22;5092524;28;20173;-75
2022/09/13 10:56:50;;;;;;;1.80;1.70;;;;;;;22.94;45.99;94615.59;5074318;28;20630;-76
2022/09/13 10:59:30;;;;;;;3.40;1.58;;;;;;;22.88;45.18;94614.09;5074407;28;20208;-76
2022/09/13 11:02:27;;;;;;;3.20;2.00;;;;;;;23.03;47.02;94614.91;5092469;28;20212;-76
2022/09/13 11:05:22;;;;;;;8.43;1.70;;;;;;;22.94;44.14;94623.63;5092246;28;20177;-76
2022/09/13 11:08:19;;;;;;;4.60;1.40;;;;;;;22.93;43.85;94616.66;5092123;28;20182;-76
2022/09/13 11:11:10;;;;;;;4.72;1.77;;;;;;;23.03;45.59;94612.22;5091980;28;20223;-76
2022/09/13 11:13:56;;;;;;;2.15;1.73;;;;;;;22.99;44.66;94614.72;5092052;28;20800;-76
2022/09/13 11:16:59;;;;;;;2.00;1.50;;;;;;;22.99;44.46;94613.91;5092138;28;20264;-76
2022/09/13 11:19:39;;;;;;;1.60;1.50;;;;;;;23.15;43.95;94613.38;5091714;28;20169;-76
2022/09/13 11:22:19;;;;;;;2.42;1.63;;;;;;;23.29;44.28;94616.06;5083752;28;20174;-76
2022/09/13 11:25:03;;;;;;;5.57;1.83;;;;;;;23.37;44.37;94606.53;5071813;28;20182;-77
2022/09/13 11:27:31;;;;;;;1.92;1.42;;;;;;;23.47;44.01;94603.66;5071492;28;20551;-77
2022/09/13 11:30:12;;;;;;;4.15;1.45;;;;;;;23.44;42.99;94596.97;5061737;28;20198;-78
2022/09/13 11:32:43;;;;;;;1.85;1.40;;;;;;;23.38;43.12;94600.84;5077592;28;20266;-77
2022/09/13 11:35:24;;;;;;;2.28;1.60;;;;;;;23.48;44.28;94603.34;5071564;28;20253;-76
2022/09/13 11:38:02;;;;;;;6.15;1.77;;;;;;;23.61;43.79;94599.91;5061139;28;20260;-77
2022/09/13 11:40:31;;;;;;;2.17;1.50;;;;;;;23.25;41.90;94590.91;5091326;28;20562;-76
2022/09/13 11:43:29;;;;;;;1.98;1.77;;;;;;;23.17;43.16;94587.00;5091379;28;20213;-77
2022/09/13 11:46:18;;;;;;;2.42;1.88;;;;;;;23.33;43.91;94595.59;5091329;28;20177;-76
2022/09/13 11:49:06;;;;;;;4.88;1.92;;;;;;;23.41;43.88;94597.59;5090299;28;20197;-77
2022/09/13 11:52:05;;;;;;;1.58;1.48;;;;;;;23.24;41.38;94581.25;5091251;28;20204;-76
2022/09/13 11:54:39;;;;;;;2.15;1.60;;;;;;;23.26;42.14;94595.19;5054581;28;20194;-77
2022/09/13 11:57:13;;;;;;;1.50;1.33;;;;;;;23.27;43.17;94592.16;5077428;28;20196;-76
2022/09/13 11:59:48;;;;;;;2.50;1.50;;;;;;;23.43;43.14;94591.91;5060929;28;20170;-74
2022/09/13 12:02:16;;;;;;;3.35;1.63;;;;;;;23.57;44.30;94598.91;5081326;28;20166;-75